sensor_id;sensor_type;location;lat;lon;timestamp;pressure;altitude;pressure_sealevel;temperature;humidity
71485;BME280;59300;52.074;4.758;2022-12-10T00:01:33;100876.38;;;-1.86;100.00
71485;BME280;59300;52.074;4.758;2022-12-10T00:04:35;100874.72;;;-1.84;100.00
71485;BME280;59300;52.074;4.758;2022-12-10T00:07:36;100879.91;;;-1.84;100.00
71485;BME280;59300;52.074;4.758;2022-12-10T00:10:40;100873.78;;;-1.88;100.00
71485;BME280;59300;52.074;4.758;2022-12-10T00:13:43;100871.22;;;-1.86;100.00
71485;BME280;59300;52.074;4.758;2022-12-10T00:16:45;100874.72;;;-1.84;100.00
71485;BME280;59300;52.074;4.758;2022-12-10T00:19:46;100879.81;;;-1.87;100.00
71485;BME280;59300;52.074;4.758;2022-12-10T00:22:48;100880.63;;;-1.90;100.00
71485;BME280;59300;52.074;4.758;2022-12-10T00:25:50;100882.47;;;-1.86;100.00
71485;BME280;59300;52.074;4.758;2022-12-10T00:28:52;100878.22;;;-1.82;100.00
71485;BME280;59300;52.074;4.758;2022-12-10T00:31:54;100879.22;;;-1.77;100.00
71485;BME280;59300;52.074;4.758;2022-12-10T00:34:55;100869.81;;;-1.73;100.00
71485;BME280;59300;52.074;4.758;2022-12-10T00:37:57;100864.75;;;-1.67;100.00
71485;BME280;59300;52.074;4.758;2022-12-10T00:40:59;100867.22;;;-1.73;100.00
71485;BME280;59300;52.074;4.758;2022-12-10T00:44:00;100869.00;;;-1.69;100.00
71485;BME280;59300;52.074;4.758;2022-12-10T00:47:02;100877.75;;;-1.64;100.00
71485;BME280;59300;52.074;4.758;2022-12-10T00:50:04;100876.00;;;-1.65;100.00
71485;BME280;59300;52.074;4.758;2022-12-10T00:53:06;100869.94;;;-1.67;100.00
71485;BME280;59300;52.074;4.758;2022-12-10T00:56:12;100875.84;;;-1.73;100.00
71485;BME280;59300;52.074;4.758;2022-12-10T00:59:14;100883.53;;;-1.76;100.00
71485;BME280;59300;52.074;4.758;2022-12-10T01:02:16;100874.06;;;-1.75;100.00
71485;BME280;59300;52.074;4.758;2022-12-10T01:05:17;100878.44;;;-1.73;100.00
71485;BME280;59300;52.074;4.758;2022-12-10T01:08:19;100889.78;;;-1.67;100.00
71485;BME280;59300;52.074;4.758;2022-12-10T01:11:21;100891.47;;;-1.68;100.00
71485;BME280;59300;52.074;4.758;2022-12-10T01:14:26;100900.03;;;-1.71;100.00
71485;BME280;59300;52.074;4.758;2022-12-10T01:17:28;100906.97;;;-1.70;100.00
71485;BME280;59300;52.074;4.758;2022-12-10T01:20:29;100900.91;;;-1.70;100.00
71485;BME280;59300;52.074;4.758;2022-12-10T01:23:32;100902.63;;;-1.71;100.00
71485;BME280;59300;52.074;4.758;2022-12-10T01:26:34;100909.28;;;-1.80;100.00
71485;BME280;59300;52.074;4.758;2022-12-10T01:29:36;100907.59;;;-1.80;100.00
71485;BME280;59300;52.074;4.758;2022-12-10T01:32:37;100902.25;;;-1.86;100.00
71485;BME280;59300;52.074;4.758;2022-12-10T01:35:40;100903.06;;;-1.89;100.00
71485;BME280;59300;52.074;4.758;2022-12-10T01:38:42;100902.16;;;-1.91;100.00
71485;BME280;59300;52.074;4.758;2022-12-10T01:41:56;100909.78;;;-1.97;100.00
71485;BME280;59300;52.074;4.758;2022-12-10T01:45:02;100913.25;;;-1.95;100.00
71485;BME280;59300;52.074;4.758;2022-12-10T01:48:04;100912.47;;;-1.92;100.00
71485;BME280;59300;52.074;4.758;2022-12-10T01:51:10;100906.41;;;-1.93;100.00
71485;BME280;59300;52.074;4.758;2022-12-10T01:54:16;100910.06;;;-1.84;100.00
71485;BME280;59300;52.074;4.758;2022-12-10T01:57:21;100920.38;;;-1.86;100.00
71485;BME280;59300;52.074;4.758;2022-12-10T02:00:23;100916.13;;;-1.84;100.00
71485;BME280;59300;52.074;4.758;2022-12-10T02:03:41;100918.69;;;-1.86;100.00
71485;BME280;59300;52.074;4.758;2022-12-10T02:07:00;100914.34;;;-1.85;100.00
71485;BME280;59300;52.074;4.758;2022-12-10T02:10:21;100916.13;;;-1.84;100.00
71485;BME280;59300;52.074;4.758;2022-12-10T02:13:37;100925.53;;;-1.88;100.00
71485;BME280;59300;52.074;4.758;2022-12-10T02:16:53;100910.94;;;-1.84;100.00
71485;BME280;59300;52.074;4.758;2022-12-10T02:20:10;100917.78;;;-1.86;100.00
71485;BME280;59300;52.074;4.758;2022-12-10T02:23:22;100912.72;;;-1.81;100.00
71485;BME280;59300;52.074;4.758;2022-12-10T02:26:32;100908.31;;;-1.86;100.00
71485;BME280;59300;52.074;4.758;2022-12-10T02:29:38;100912.66;;;-1.84;100.00
71485;BME280;59300;52.074;4.758;2022-12-10T02:32:43;100917.88;;;-1.81;100.00
71485;BME280;59300;52.074;4.758;2022-12-10T02:35:50;100908.38;;;-1.82;100.00
71485;BME280;59300;52.074;4.758;2022-12-10T02:38:55;100905.94;;;-1.78;100.00
71485;BME280;59300;52.074;4.758;2022-12-10T02:42:00;100912.72;;;-1.81;100.00
71485;BME280;59300;52.074;4.758;2022-12-10T02:45:05;100907.59;;;-1.80;100.00
71485;BME280;59300;52.074;4.758;2022-12-10T02:48:09;100909.38;;;-1.77;100.00
71485;BME280;59300;52.074;4.758;2022-12-10T02:51:14;100915.38;;;-1.78;100.00
71485;BME280;59300;52.074;4.758;2022-12-10T02:54:35;100915.34;;;-1.80;100.00
71485;BME280;59300;52.074;4.758;2022-12-10T03:04:16;100918.81;;;-1.79;100.00
71485;BME280;59300;52.074;4.758;2022-12-10T03:07:34;100926.56;;;-1.79;100.00
71485;BME280;59300;52.074;4.758;2022-12-10T03:10:45;100921.38;;;-1.79;100.00
71485;BME280;59300;52.074;4.758;2022-12-10T03:14:00;100922.28;;;-1.79;100.00
71485;BME280;59300;52.074;4.758;2022-12-10T03:17:04;100919.59;;;-1.83;100.00
71485;BME280;59300;52.074;4.758;2022-12-10T03:20:08;100909.25;;;-1.83;100.00
71485;BME280;59300;52.074;4.758;2022-12-10T03:23:15;100908.38;;;-1.82;100.00
71485;BME280;59300;52.074;4.758;2022-12-10T03:26:18;100910.13;;;-1.81;100.00
71485;BME280;59300;52.074;4.758;2022-12-10T03:29:26;100906.69;;;-1.80;100.00
71485;BME280;59300;52.074;4.758;2022-12-10T03:32:29;100910.94;;;-1.84;100.00
71485;BME280;59300;52.074;4.758;2022-12-10T03:35:31;100910.91;;;-1.86;100.00
71485;BME280;59300;52.074;4.758;2022-12-10T03:38:35;100901.25;;;-1.93;100.00
71485;BME280;59300;52.074;4.758;2022-12-10T03:41:37;100905.56;;;-1.93;100.00
71485;BME280;59300;52.074;4.758;2022-12-10T03:44:39;100918.50;;;-1.92;100.00
71485;BME280;59300;52.074;4.758;2022-12-10T03:47:41;100907.44;;;-1.86;100.00
71485;BME280;59300;52.074;4.758;2022-12-10T03:50:43;100909.91;;;-1.91;100.00
71485;BME280;59300;52.074;4.758;2022-12-10T03:53:44;100919.31;;;-1.94;100.00
71485;BME280;59300;52.074;4.758;2022-12-10T03:56:46;100921.06;;;-1.93;100.00
71485;BME280;59300;52.074;4.758;2022-12-10T03:59:48;100920.19;;;-1.94;100.00
71485;BME280;59300;52.074;4.758;2022-12-10T04:02:49;100919.31;;;-1.94;100.00
71485;BME280;59300;52.074;4.758;2022-12-10T04:05:50;100921.94;;;-1.93;100.00
71485;BME280;59300;52.074;4.758;2022-12-10T04:08:52;100923.56;;;-1.96;100.00
71485;BME280;59300;52.074;4.758;2022-12-10T04:11:59;100916.66;;;-1.97;100.00
71485;BME280;59300;52.074;4.758;2022-12-10T04:15:01;100920.13;;;-1.97;100.00
71485;BME280;59300;52.074;4.758;2022-12-10T04:18:02;100921.88;;;-1.96;100.00
71485;BME280;59300;52.074;4.758;2022-12-10T04:21:04;100922.63;;;-2.00;100.00
71485;BME280;59300;52.074;4.758;2022-12-10T04:24:08;100914.97;;;-1.97;100.00
71485;BME280;59300;52.074;4.758;2022-12-10T04:27:26;100920.13;;;-1.97;100.00
71485;BME280;59300;52.074;4.758;2022-12-10T04:30:28;100925.97;;;-2.04;100.00
71485;BME280;59300;52.074;4.758;2022-12-10T04:33:29;100925.00;;;-2.09;100.00
71485;BME280;59300;52.074;4.758;2022-12-10T04:36:31;100922.53;;;-2.05;100.00
71485;BME280;59300;52.074;4.758;2022-12-10T04:39:33;100924.47;;;-1.96;100.00
71485;BME280;59300;52.074;4.758;2022-12-10T04:42:34;100920.19;;;-1.94;100.00
71485;BME280;59300;52.074;4.758;2022-12-10T04:45:36;100922.72;;;-1.97;100.00
71485;BME280;59300;52.074;4.758;2022-12-10T04:48:40;100922.63;;;-2.00;100.00
71485;BME280;59300;52.074;4.758;2022-12-10T04:51:42;100928.72;;;-1.98;100.00
71485;BME280;59300;52.074;4.758;2022-12-10T04:54:44;100929.66;;;-1.96;100.00
71485;BME280;59300;52.074;4.758;2022-12-10T04:57:46;100924.38;;;-1.99;100.00
71485;BME280;59300;52.074;4.758;2022-12-10T05:00:48;100922.63;;;-2.00;100.00
71485;BME280;59300;52.074;4.758;2022-12-10T05:03:50;100923.56;;;-1.98;100.00
71485;BME280;59300;52.074;4.758;2022-12-10T05:06:51;100930.47;;;-1.97;100.00
71485;BME280;59300;52.074;4.758;2022-12-10T05:09:53;100927.00;;;-1.97;100.00
71485;BME280;59300;52.074;4.758;2022-12-10T05:12:54;100927.09;;;-1.93;100.00
71485;BME280;59300;52.074;4.758;2022-12-10T05:15:56;100932.28;;;-1.93;100.00
71485;BME280;59300;52.074;4.758;2022-12-10T05:18:58;100928.72;;;-1.98;100.00
71485;BME280;59300;52.074;4.758;2022-12-10T05:22:00;100929.66;;;-1.94;100.00
71485;BME280;59300;52.074;4.758;2022-12-10T05:25:01;100929.69;;;-1.93;100.00
71485;BME280;59300;52.074;4.758;2022-12-10T05:28:03;100921.88;;;-1.96;100.00
71485;BME280;59300;52.074;4.758;2022-12-10T05:31:05;100924.59;;;-1.90;100.00
71485;BME280;59300;52.074;4.758;2022-12-10T05:34:06;100919.44;;;-1.90;100.00
71485;BME280;59300;52.074;4.758;2022-12-10T05:37:08;100921.25;;;-1.86;100.00
71485;BME280;59300;52.074;4.758;2022-12-10T05:40:10;100918.50;;;-1.92;100.00
71485;BME280;59300;52.074;4.758;2022-12-10T05:43:12;100918.59;;;-1.89;100.00
71485;BME280;59300;52.074;4.758;2022-12-10T05:46:18;100919.63;;;-1.80;100.00
71485;BME280;59300;52.074;4.758;2022-12-10T05:49:20;100924.75;;;-1.83;100.00
71485;BME280;59300;52.074;4.758;2022-12-10T05:52:22;100931.63;;;-1.86;100.00
71485;BME280;59300;52.074;4.758;2022-12-10T05:55:23;100924.75;;;-1.83;100.00
71485;BME280;59300;52.074;4.758;2022-12-10T05:58:27;100932.53;;;-1.83;100.00
71485;BME280;59300;52.074;4.758;2022-12-10T06:01:32;100935.94;;;-1.84;100.00
71485;BME280;59300;52.074;4.758;2022-12-10T06:04:33;100934.25;;;-1.82;100.00
71485;BME280;59300;52.074;4.758;2022-12-10T06:07:35;100934.25;;;-1.82;100.00
71485;BME280;59300;52.074;4.758;2022-12-10T06:10:36;100935.13;;;-1.83;100.00
71485;BME280;59300;52.074;4.758;2022-12-10T06:13:38;100937.69;;;-1.83;100.00
71485;BME280;59300;52.074;4.758;2022-12-10T06:16:39;100939.41;;;-1.82;100.00
71485;BME280;59300;52.074;4.758;2022-12-10T06:19:41;100938.47;;;-1.86;100.00
71485;BME280;59300;52.074;4.758;2022-12-10T06:22:42;100945.50;;;-1.82;100.00
71485;BME280;59300;52.074;4.758;2022-12-10T06:25:44;100942.94;;;-1.80;100.00
71485;BME280;59300;52.074;4.758;2022-12-10T06:28:47;100949.91;;;-1.78;100.00
71485;BME280;59300;52.074;4.758;2022-12-10T06:31:49;100952.31;;;-1.86;100.00
71485;BME280;59300;52.074;4.758;2022-12-10T06:34:51;100961.88;;;-1.81;100.00
71485;BME280;59300;52.074;4.758;2022-12-10T06:37:52;100965.28;;;-1.82;100.00
71485;BME280;59300;52.074;4.758;2022-12-10T06:40:54;100961.03;;;-1.80;100.00
71485;BME280;59300;52.074;4.758;2022-12-10T06:43:55;100957.59;;;-1.81;100.00
71485;BME280;59300;52.074;4.758;2022-12-10T06:46:57;100967.72;;;-1.90;100.00
71485;BME280;59300;52.074;4.758;2022-12-10T06:49:58;100964.34;;;-1.86;100.00
71485;BME280;59300;52.074;4.758;2022-12-10T06:53:00;100961.81;;;-1.84;100.00
71485;BME280;59300;52.074;4.758;2022-12-10T06:56:03;100968.75;;;-1.83;100.00
71485;BME280;59300;52.074;4.758;2022-12-10T06:59:05;100973.13;;;-1.81;100.00
71485;BME280;59300;52.074;4.758;2022-12-10T07:02:09;100971.47;;;-1.77;100.00
71485;BME280;59300;52.074;4.758;2022-12-10T07:05:11;100981.91;;;-1.74;100.00
71485;BME280;59300;52.074;4.758;2022-12-10T07:08:12;100981.09;;;-1.72;100.00
71485;BME280;59300;52.074;4.758;2022-12-10T07:11:15;100983.75;;;-1.68;100.00
71485;BME280;59300;52.074;4.758;2022-12-10T07:14:18;100984.50;;;-1.74;100.00
71485;BME280;59300;52.074;4.758;2022-12-10T07:17:26;100985.31;;;-1.77;100.00
71485;BME280;59300;52.074;4.758;2022-12-10T07:20:34;100984.50;;;-1.74;100.00
71485;BME280;59300;52.074;4.758;2022-12-10T07:23:35;100992.25;;;-1.74;100.00
71485;BME280;59300;52.074;4.758;2022-12-10T07:26:38;100988.84;;;-1.73;100.00
71485;BME280;59300;52.074;4.758;2022-12-10T07:29:40;100984.41;;;-1.77;100.00
71485;BME280;59300;52.074;4.758;2022-12-10T07:32:42;100990.53;;;-1.74;100.00
71485;BME280;59300;52.074;4.758;2022-12-10T07:35:43;100993.13;;;-1.74;100.00
71485;BME280;59300;52.074;4.758;2022-12-10T07:38:50;100993.09;;;-1.75;100.00
71485;BME280;59300;52.074;4.758;2022-12-10T07:41:52;100986.25;;;-1.73;100.00
71485;BME280;59300;52.074;4.758;2022-12-10T07:44:55;100994.75;;;-1.77;100.00
71485;BME280;59300;52.074;4.758;2022-12-10T07:47:58;100999.78;;;-1.83;100.00
71485;BME280;59300;52.074;4.758;2022-12-10T07:51:00;101005.84;;;-1.81;100.00
71485;BME280;59300;52.074;4.758;2022-12-10T07:54:02;100999.09;;;-1.76;100.00
71485;BME280;59300;52.074;4.758;2022-12-10T07:57:04;100994.84;;;-1.74;100.00
71485;BME280;59300;52.074;4.758;2022-12-10T08:00:12;101003.34;;;-1.78;100.00
71485;BME280;59300;52.074;4.758;2022-12-10T08:03:52;100996.34;;;-1.82;100.00
71485;BME280;59300;52.074;4.758;2022-12-10T08:07:25;100998.09;;;-1.81;100.00
71485;BME280;59300;52.074;4.758;2022-12-10T08:10:26;101000.75;;;-1.80;100.00
71485;BME280;59300;52.074;4.758;2022-12-10T08:13:28;101005.00;;;-1.82;100.00
71485;BME280;59300;52.074;4.758;2022-12-10T08:16:30;101016.19;;;-1.83;100.00
71485;BME280;59300;52.074;4.758;2022-12-10T08:20:11;101022.22;;;-1.82;100.00
71485;BME280;59300;52.074;4.758;2022-12-10T08:23:12;101025.66;;;-1.83;100.00
71485;BME280;59300;52.074;4.758;2022-12-10T08:26:22;101029.75;;;-1.92;100.00
71485;BME280;59300;52.074;4.758;2022-12-10T08:29:34;101020.16;;;-1.96;100.00
71485;BME280;59300;52.074;4.758;2022-12-10T08:32:42;101027.16;;;-1.92;100.00
71485;BME280;59300;52.074;4.758;2022-12-10T08:35:44;101035.75;;;-1.93;100.00
71485;BME280;59300;52.074;4.758;2022-12-10T08:38:46;101037.50;;;-1.92;100.00
71485;BME280;59300;52.074;4.758;2022-12-10T08:41:53;101042.75;;;-1.89;100.00
71485;BME280;59300;52.074;4.758;2022-12-10T08:44:58;101046.28;;;-1.87;100.00
71485;BME280;59300;52.074;4.758;2022-12-10T08:48:06;101039.34;;;-1.88;100.00
71485;BME280;59300;52.074;4.758;2022-12-10T08:51:11;101049.78;;;-1.84;100.00
71485;BME280;59300;52.074;4.758;2022-12-10T08:54:25;101049.78;;;-1.84;100.00
71485;BME280;59300;52.074;4.758;2022-12-10T08:57:31;101046.09;;;-1.93;100.00
71485;BME280;59300;52.074;4.758;2022-12-10T09:00:33;101051.38;;;-1.88;100.00
71485;BME280;59300;52.074;4.758;2022-12-10T09:03:35;101059.16;;;-1.88;100.00
71485;BME280;59300;52.074;4.758;2022-12-10T09:06:37;101059.22;;;-1.87;100.00
71485;BME280;59300;52.074;4.758;2022-12-10T09:09:38;101066.19;;;-1.82;100.00
71485;BME280;59300;52.074;4.758;2022-12-10T09:12:40;101066.72;;;-1.96;100.00
71485;BME280;59300;52.074;4.758;2022-12-10T09:15:52;101069.25;;;-1.97;100.00
71485;BME280;59300;52.074;4.758;2022-12-10T09:18:59;101078.06;;;-1.91;100.00
71485;BME280;59300;52.074;4.758;2022-12-10T09:22:01;101073.72;;;-1.92;100.00
71485;BME280;59300;52.074;4.758;2022-12-10T09:25:07;101063.56;;;-1.86;100.00
71485;BME280;59300;52.074;4.758;2022-12-10T09:28:09;101070.38;;;-1.88;100.00
71485;BME280;59300;52.074;4.758;2022-12-10T09:31:11;101076.28;;;-1.93;100.00
71485;BME280;59300;52.074;4.758;2022-12-10T09:34:24;101088.50;;;-1.88;100.00
71485;BME280;59300;52.074;4.758;2022-12-10T09:37:26;101093.69;;;-1.86;100.00
71485;BME280;59300;52.074;4.758;2022-12-10T09:40:35;101098.09;;;-1.83;100.00
71485;BME280;59300;52.074;4.758;2022-12-10T09:43:52;101091.09;;;-1.88;100.00
71485;BME280;59300;52.074;4.758;2022-12-10T09:47:00;101092.78;;;-1.88;100.00
71485;BME280;59300;52.074;4.758;2022-12-10T09:50:32;101085.91;;;-1.88;100.00
71485;BME280;59300;52.074;4.758;2022-12-10T09:53:36;101095.53;;;-1.82;100.00
71485;BME280;59300;52.074;4.758;2022-12-10T09:56:39;101088.50;;;-1.88;100.00
71485;BME280;59300;52.074;4.758;2022-12-10T09:59:44;101086.84;;;-1.84;100.00
71485;BME280;59300;52.074;4.758;2022-12-10T10:02:50;101083.53;;;-1.80;100.00
71485;BME280;59300;52.074;4.758;2022-12-10T10:05:53;101090.41;;;-1.80;100.00
71485;BME280;59300;52.074;4.758;2022-12-10T10:09:01;101094.59;;;-1.86;100.00
71485;BME280;59300;52.074;4.758;2022-12-10T10:12:11;101090.34;;;-1.83;100.00
71485;BME280;59300;52.074;4.758;2022-12-10T10:15:16;101091.31;;;-1.78;100.00
71485;BME280;59300;52.074;4.758;2022-12-10T10:18:39;101099.09;;;-1.78;100.00
71485;BME280;59300;52.074;4.758;2022-12-10T10:21:45;101095.78;;;-1.73;100.00
71485;BME280;59300;52.074;4.758;2022-12-10T10:24:47;101104.56;;;-1.67;100.00
71485;BME280;59300;52.074;4.758;2022-12-10T10:27:49;101094.19;;;-1.67;100.00
71485;BME280;59300;52.074;4.758;2022-12-10T10:30:52;101101.97;;;-1.67;100.00
71485;BME280;59300;52.074;4.758;2022-12-10T10:34:00;101099.28;;;-1.71;100.00
71485;BME280;59300;52.074;4.758;2022-12-10T10:37:06;101101.06;;;-1.68;100.00
71485;BME280;59300;52.074;4.758;2022-12-10T10:40:39;101097.72;;;-1.65;100.00
71485;BME280;59300;52.074;4.758;2022-12-10T10:43:43;101103.63;;;-1.70;100.00
71485;BME280;59300;52.074;4.758;2022-12-10T10:46:47;101109.84;;;-1.63;100.00
71485;BME280;59300;52.074;4.758;2022-12-10T10:49:49;101098.69;;;-1.60;100.00
71485;BME280;59300;52.074;4.758;2022-12-10T10:52:51;101105.81;;;-1.51;100.00
71485;BME280;59300;52.074;4.758;2022-12-10T10:56:09;101104.25;;;-1.46;100.00
71485;BME280;59300;52.074;4.758;2022-12-10T11:05:31;101093.50;;;-1.60;100.00
71485;BME280;59300;52.074;4.758;2022-12-10T11:08:37;101102.31;;;-1.53;100.00
71485;BME280;59300;52.074;4.758;2022-12-10T11:11:40;101100.41;;;-1.61;100.00
71485;BME280;59300;52.074;4.758;2022-12-10T11:14:45;101103.41;;;-1.45;100.00
71485;BME280;59300;52.074;4.758;2022-12-10T11:17:49;101090.50;;;-1.42;100.00
71485;BME280;59300;52.074;4.758;2022-12-10T11:20:58;101095.69;;;-1.42;100.00
71485;BME280;59300;52.074;4.758;2022-12-10T11:24:09;101100.97;;;-1.39;100.00
71485;BME280;59300;52.074;4.758;2022-12-10T11:30:25;101099.38;;;-1.34;100.00
71485;BME280;59300;52.074;4.758;2022-12-10T11:33:35;101105.31;;;-1.36;100.00
71485;BME280;59300;52.074;4.758;2022-12-10T11:40:11;101094.91;;;-1.40;100.00
71485;BME280;59300;52.074;4.758;2022-12-10T11:43:37;101093.00;;;-1.47;100.00
71485;BME280;59300;52.074;4.758;2022-12-10T11:50:33;101098.28;;;-1.42;100.00
71485;BME280;59300;52.074;4.758;2022-12-10T12:03:32;101094.09;;;-1.37;100.00
71485;BME280;59300;52.074;4.758;2022-12-10T12:06:51;101090.78;;;-1.33;100.00
71485;BME280;59300;52.074;4.758;2022-12-10T12:13:20;101096.09;;;-1.27;100.00
71485;BME280;59300;52.074;4.758;2022-12-10T12:16:58;101096.25;;;-1.20;100.00
71485;BME280;59300;52.074;4.758;2022-12-10T12:20:02;101095.34;;;-1.21;100.00
71485;BME280;59300;52.074;4.758;2022-12-10T12:26:29;101090.97;;;-1.24;100.00
71485;BME280;59300;52.074;4.758;2022-12-10T12:29:57;101082.22;;;-1.29;100.00
71485;BME280;59300;52.074;4.758;2022-12-10T12:33:16;101084.19;;;-1.18;100.00
71485;BME280;59300;52.074;4.758;2022-12-10T12:36:24;101077.19;;;-1.22;100.00
71485;BME280;59300;52.074;4.758;2022-12-10T12:39:30;101080.03;;;-1.12;100.00
71485;BME280;59300;52.074;4.758;2022-12-10T12:42:54;101081.59;;;-1.18;100.00
71485;BME280;59300;52.074;4.758;2022-12-10T12:45:58;101074.63;;;-1.21;100.00
71485;BME280;59300;52.074;4.758;2022-12-10T12:49:03;101082.44;;;-1.19;100.00
71485;BME280;59300;52.074;4.758;2022-12-10T13:02:02;101090.34;;;-1.15;100.00
71485;BME280;59300;52.074;4.758;2022-12-10T13:05:18;101092.00;;;-1.17;100.00
71485;BME280;59300;52.074;4.758;2022-12-10T13:08:24;101093.50;;;-1.27;100.00
71485;BME280;59300;52.074;4.758;2022-12-10T13:11:35;101089.06;;;-1.31;100.00
71485;BME280;59300;52.074;4.758;2022-12-10T13:18:03;101095.25;;;-1.26;100.00
71485;BME280;59300;52.074;4.758;2022-12-10T13:27:37;101099.00;;;-1.13;100.00
71485;BME280;59300;52.074;4.758;2022-12-10T13:30:39;101089.53;;;-1.12;100.00
71485;BME280;59300;52.074;4.758;2022-12-10T13:37:18;101104.84;;;-1.21;100.00
71485;BME280;59300;52.074;4.758;2022-12-10T13:46:54;101112.69;;;-1.18;100.00
71485;BME280;59300;52.074;4.758;2022-12-10T13:49:58;101115.41;;;-1.14;100.00
71485;BME280;59300;52.074;4.758;2022-12-10T13:56:40;101107.63;;;-1.14;100.00
71485;BME280;59300;52.074;4.758;2022-12-10T14:06:24;101111.16;;;-1.10;100.00
71485;BME280;59300;52.074;4.758;2022-12-10T14:09:31;101113.81;;;-1.07;100.00
71485;BME280;59300;52.074;4.758;2022-12-10T14:12:37;101117.41;;;-1.02;100.00
71485;BME280;59300;52.074;4.758;2022-12-10T14:15:51;101113.97;;;-1.01;100.00
71485;BME280;59300;52.074;4.758;2022-12-10T14:19:00;101117.41;;;-1.02;100.00
71485;BME280;59300;52.074;4.758;2022-12-10T14:22:08;101108.88;;;-0.98;100.00
71485;BME280;59300;52.074;4.758;2022-12-10T14:25:17;101107.13;;;-0.99;100.00
71485;BME280;59300;52.074;4.758;2022-12-10T14:28:20;101107.03;;;-1.02;100.00
71485;BME280;59300;52.074;4.758;2022-12-10T14:31:26;101116.56;;;-1.01;100.00
71485;BME280;59300;52.074;4.758;2022-12-10T14:34:28;101121.75;;;-0.99;100.00
71485;BME280;59300;52.074;4.758;2022-12-10T14:37:33;101127.84;;;-0.99;100.00
71485;BME280;59300;52.074;4.758;2022-12-10T14:40:39;101141.75;;;-0.94;100.00
71485;BME280;59300;52.074;4.758;2022-12-10T14:43:41;101140.03;;;-0.95;100.00
71485;BME280;59300;52.074;4.758;2022-12-10T14:46:43;101138.31;;;-0.94;100.00
71485;BME280;59300;52.074;4.758;2022-12-10T14:49:48;101133.09;;;-0.96;100.00
71485;BME280;59300;52.074;4.758;2022-12-10T14:52:51;101134.84;;;-0.95;100.00
71485;BME280;59300;52.074;4.758;2022-12-10T14:55:57;101125.34;;;-0.94;100.00
71485;BME280;59300;52.074;4.758;2022-12-10T15:02:16;101131.56;;;-0.87;100.00
71485;BME280;59300;52.074;4.758;2022-12-10T15:05:23;101135.00;;;-0.87;100.00
71485;BME280;59300;52.074;4.758;2022-12-10T15:08:25;101139.34;;;-0.86;100.00
71485;BME280;59300;52.074;4.758;2022-12-10T15:11:28;101149.00;;;-0.80;100.00
71485;BME280;59300;52.074;4.758;2022-12-10T15:14:29;101144.69;;;-0.80;100.00
71485;BME280;59300;52.074;4.758;2022-12-10T15:17:43;101142.19;;;-0.76;100.00
71485;BME280;59300;52.074;4.758;2022-12-10T15:20:54;101144.81;;;-0.73;100.00
71485;BME280;59300;52.074;4.758;2022-12-10T15:24:14;101140.47;;;-0.76;100.00
71485;BME280;59300;52.074;4.758;2022-12-10T15:27:19;101139.63;;;-0.75;100.00
71485;BME280;59300;52.074;4.758;2022-12-10T15:30:24;101139.69;;;-0.72;100.00
71485;BME280;59300;52.074;4.758;2022-12-10T15:33:36;101131.03;;;-0.72;100.00
71485;BME280;59300;52.074;4.758;2022-12-10T15:36:47;101143.25;;;-0.67;100.00
71485;BME280;59300;52.074;4.758;2022-12-10T15:39:55;101144.09;;;-0.68;100.00
71485;BME280;59300;52.074;4.758;2022-12-10T15:43:13;101146.75;;;-0.66;100.00
71485;BME280;59300;52.074;4.758;2022-12-10T15:46:21;101149.50;;;-0.58;100.00
71485;BME280;59300;52.074;4.758;2022-12-10T15:49:22;101152.94;;;-0.59;100.00
71485;BME280;59300;52.074;4.758;2022-12-10T15:52:29;101152.97;;;-0.56;100.00
71485;BME280;59300;52.074;4.758;2022-12-10T15:55:33;101155.72;;;-0.52;100.00
71485;BME280;59300;52.074;4.758;2022-12-10T15:58:35;101149.56;;;-0.55;100.00
71485;BME280;59300;52.074;4.758;2022-12-10T16:01:36;101151.31;;;-0.54;100.00
71485;BME280;59300;52.074;4.758;2022-12-10T16:04:38;101143.59;;;-0.53;100.00
71485;BME280;59300;52.074;4.758;2022-12-10T16:07:40;101155.72;;;-0.52;100.00
71485;BME280;59300;52.074;4.758;2022-12-10T16:10:43;101148.03;;;-0.47;100.00
71485;BME280;59300;52.074;4.758;2022-12-10T16:13:54;101149.81;;;-0.43;100.00
71485;BME280;59300;52.074;4.758;2022-12-10T16:16:56;101144.59;;;-0.46;100.00
71485;BME280;59300;52.074;4.758;2022-12-10T16:19:59;101150.72;;;-0.42;100.00
71485;BME280;59300;52.074;4.758;2022-12-10T16:23:01;101144.72;;;-0.40;100.00
71485;BME280;59300;52.074;4.758;2022-12-10T16:26:09;101155.16;;;-0.37;100.00
71485;BME280;59300;52.074;4.758;2022-12-10T16:29:13;101152.56;;;-0.37;100.00
71485;BME280;59300;52.074;4.758;2022-12-10T16:32:15;101150.81;;;-0.38;100.00
71485;BME280;59300;52.074;4.758;2022-12-10T16:35:16;101143.91;;;-0.37;100.00
71485;BME280;59300;52.074;4.758;2022-12-10T16:38:18;101140.53;;;-0.33;100.00
71485;BME280;59300;52.074;4.758;2022-12-10T16:41:24;101144.97;;;-0.29;100.00
71485;BME280;59300;52.074;4.758;2022-12-10T16:44:25;101155.28;;;-0.31;100.00
71485;BME280;59300;52.074;4.758;2022-12-10T16:47:27;101153.56;;;-0.32;100.00
71485;BME280;59300;52.074;4.758;2022-12-10T16:50:28;101143.19;;;-0.32;100.00
71485;BME280;59300;52.074;4.758;2022-12-10T16:53:30;101147.38;;;-0.37;100.00
71485;BME280;59300;52.074;4.758;2022-12-10T16:56:31;101150.00;;;-0.35;100.00
71485;BME280;59300;52.074;4.758;2022-12-10T16:59:33;101156.16;;;-0.32;100.00
71485;BME280;59300;52.074;4.758;2022-12-10T17:02:35;101155.28;;;-0.31;100.00
71485;BME280;59300;52.074;4.758;2022-12-10T17:05:39;101150.97;;;-0.32;100.00
71485;BME280;59300;52.074;4.758;2022-12-10T17:08:41;101164.81;;;-0.29;100.00
71485;BME280;59300;52.074;4.758;2022-12-10T17:11:43;101159.72;;;-0.26;100.00
71485;BME280;59300;52.074;4.758;2022-12-10T17:14:44;101157.09;;;-0.26;100.00
71485;BME280;59300;52.074;4.758;2022-12-10T17:17:46;101158.78;;;-0.28;100.00
71485;BME280;59300;52.074;4.758;2022-12-10T17:20:48;101161.44;;;-0.27;100.00